createdAt,value
2023-03-14T00:03:47.928Z,3.59
2023-03-14T00:14:09.099Z,3.55
2023-03-14T00:24:30.162Z,3.51
2023-03-14T00:34:51.354Z,3.44
2023-03-14T00:45:12.255Z,3.35
2023-03-14T00:55:37.668Z,3.31
2023-03-14T01:06:09.280Z,3.22
2023-03-14T01:16:35.043Z,3.18
2023-03-14T01:26:56.399Z,3.09
2023-03-14T01:37:20.023Z,3.00
2023-03-14T01:47:41.599Z,2.85
2023-03-14T01:58:05.556Z,2.77
2023-03-14T02:08:29.055Z,2.65
2023-03-14T02:18:57.454Z,2.44
2023-03-14T02:29:21.710Z,2.32
2023-03-14T02:39:46.489Z,2.16
2023-03-14T02:50:15.198Z,2.01
2023-03-14T03:00:37.044Z,1.97
2023-03-14T03:11:00.709Z,1.74
2023-03-14T03:21:24.499Z,1.65
2023-03-14T03:31:48.560Z,1.54
2023-03-14T03:42:10.791Z,1.52
2023-03-14T03:52:32.066Z,1.42
2023-03-14T04:02:53.907Z,1.36
2023-03-14T04:13:16.088Z,1.41
2023-03-14T04:23:41.845Z,1.45
2023-03-14T06:19:33.986Z,4.38
2023-03-14T06:29:55.499Z,4.48
2023-03-14T06:40:18.993Z,4.80
2023-03-14T06:50:53.842Z,4.70
2023-03-14T07:01:29.582Z,5.41
2023-03-14T07:11:59.299Z,5.64
2023-03-14T07:22:20.912Z,5.81
2023-03-14T07:32:42.791Z,6.42
2023-03-14T07:43:04.817Z,6.89
2023-03-14T07:53:52.273Z,7.32
2023-03-14T08:04:13.937Z,7.93
2023-03-14T08:14:19.803Z,8.44
2023-03-14T08:24:42.246Z,8.57
2023-03-14T08:35:05.159Z,8.77
2023-03-14T08:45:26.306Z,9.07
2023-03-14T08:55:47.498Z,9.51
2023-03-14T09:06:11.173Z,9.41
2023-03-14T09:16:34.330Z,9.51
2023-03-14T09:26:57.965Z,9.95
2023-03-14T09:37:21.051Z,10.21
2023-03-14T09:47:56.487Z,10.25
2023-03-14T09:58:22.920Z,10.60
2023-03-14T10:08:46.061Z,11.00
2023-03-14T10:19:12.813Z,11.03
2023-03-14T10:29:35.927Z,10.97
2023-03-14T10:40:06.776Z,11.07
2023-03-14T10:50:32.407Z,11.58
2023-03-14T11:01:05.371Z,11.51
2023-03-14T11:11:31.889Z,11.54
2023-03-14T11:22:41.507Z,12.04
2023-03-14T11:33:24.922Z,11.95
2023-03-14T11:43:50.387Z,12.47
2023-03-14T11:54:33.256Z,13.06
2023-03-14T12:05:18.929Z,12.58
2023-03-14T12:15:47.811Z,12.28
2023-03-14T12:26:45.599Z,12.54
2023-03-14T12:37:31.342Z,11.65
2023-03-14T12:47:55.482Z,11.63
2023-03-14T12:58:45.375Z,11.72
2023-03-14T13:09:28.686Z,11.70
2023-03-14T13:19:58.134Z,11.75
2023-03-14T13:30:31.244Z,11.78
2023-03-14T13:41:03.272Z,11.69
2023-03-14T13:51:26.190Z,11.45
2023-03-14T14:01:49.381Z,11.35
2023-03-14T14:12:17.145Z,11.49
2023-03-14T14:22:39.222Z,11.29
2023-03-14T14:34:02.615Z,11.18
2023-03-14T14:44:34.782Z,11.01
2023-03-14T14:55:01.310Z,10.86
2023-03-14T15:05:28.787Z,10.62
2023-03-14T15:15:57.014Z,10.28
2023-03-14T15:26:23.409Z,10.03
2023-03-14T15:36:45.038Z,9.76
2023-03-14T15:47:07.475Z,9.46
2023-03-14T15:57:29.194Z,9.21
2023-03-14T16:07:50.858Z,8.98
2023-03-14T16:18:21.699Z,8.78
2023-03-14T16:28:44.450Z,8.56
2023-03-14T16:39:05.870Z,8.52
2023-03-14T16:49:27.080Z,8.47
2023-03-14T16:59:53.676Z,8.40
2023-03-14T17:10:15.581Z,8.37
2023-03-14T17:20:37.297Z,8.25
2023-03-14T17:31:17.948Z,8.19
2023-03-14T17:41:39.335Z,8.08
2023-03-14T17:52:01.107Z,8.04
2023-03-14T18:02:24.736Z,7.92
2023-03-14T18:12:46.500Z,7.85
2023-03-14T18:23:09.226Z,7.69
2023-03-14T18:33:37.629Z,7.51
2023-03-14T18:43:58.925Z,7.31
2023-03-14T18:54:20.362Z,7.23
2023-03-14T19:04:41.771Z,7.23
2023-03-14T19:15:03.706Z,7.10
2023-03-14T19:25:25.159Z,6.88
2023-03-14T19:35:47.056Z,6.89
2023-03-14T19:46:08.336Z,6.73
2023-03-14T19:56:30.130Z,6.63
2023-03-14T20:06:55.325Z,6.46
2023-03-14T20:17:16.436Z,6.20
2023-03-14T20:27:38.270Z,5.95
2023-03-14T20:37:59.922Z,5.90
2023-03-14T20:48:22.387Z,5.77
2023-03-14T20:58:45.667Z,5.67
2023-03-14T21:09:07.420Z,5.57
2023-03-14T21:37:07.240Z,5.22
2023-03-14T21:47:28.562Z,5.15
2023-03-14T21:57:49.963Z,5.05
2023-03-14T22:08:13.255Z,4.87
2023-03-14T22:18:34.794Z,4.85
2023-03-14T22:28:56.392Z,4.71
2023-03-14T22:39:19.258Z,4.61
2023-03-14T22:49:40.504Z,4.46
2023-03-14T23:00:01.533Z,4.27
2023-03-14T23:10:22.826Z,4.19
2023-03-14T23:20:45.484Z,4.08
2023-03-14T23:31:09.072Z,4.00
2023-03-14T23:41:30.467Z,3.78
2023-03-14T23:51:51.400Z,3.70
